createdAt,value
2023-02-06T00:01:02.724Z,3.60
2023-02-06T00:03:30.402Z,3.20
2023-02-06T00:05:58.622Z,3.20
2023-02-06T00:08:26.340Z,3.10
2023-02-06T00:10:53.335Z,3.20
2023-02-06T00:13:20.660Z,3.20
2023-02-06T00:15:48.022Z,3.20
2023-02-06T00:18:15.606Z,3.20
2023-02-06T00:20:42.832Z,3.20
2023-02-06T00:23:10.373Z,3.20
2023-02-06T00:25:38.321Z,3.30
2023-02-06T00:28:05.859Z,3.30
2023-02-06T00:30:33.426Z,3.30
2023-02-06T00:33:03.890Z,3.30
2023-02-06T00:35:31.643Z,3.30
2023-02-06T00:38:00.811Z,3.30
2023-02-06T00:40:28.109Z,3.30
2023-02-06T00:42:55.886Z,3.90
2023-02-06T00:45:23.361Z,3.20
2023-02-06T00:47:50.834Z,3.40
2023-02-06T00:50:18.235Z,3.30
2023-02-06T00:55:27.819Z,3.30
2023-02-06T00:57:58.244Z,3.20
2023-02-06T01:00:26.100Z,3.60
2023-02-06T01:02:53.951Z,3.30
2023-02-06T01:05:21.563Z,3.20
2023-02-06T01:07:50.400Z,3.30
2023-02-06T01:10:17.631Z,3.30
2023-02-06T01:12:47.827Z,3.30
2023-02-06T01:15:25.741Z,3.30
2023-02-06T01:17:55.618Z,3.30
2023-02-06T01:20:27.910Z,2.30
2023-02-06T01:22:55.237Z,3.30
2023-02-06T01:25:25.634Z,3.30
2023-02-06T01:27:52.739Z,3.30
2023-02-06T01:30:22.219Z,3.30
2023-02-06T01:32:52.525Z,3.30
2023-02-06T01:35:19.496Z,3.30
2023-02-06T01:37:47.060Z,3.30
2023-02-06T01:40:14.883Z,3.60
2023-02-06T01:42:42.089Z,3.40
2023-02-06T01:45:21.973Z,3.40
2023-02-06T01:47:52.559Z,3.40
2023-02-06T01:50:23.452Z,3.40
2023-02-06T01:52:51.438Z,3.40
2023-02-06T01:55:18.596Z,3.40
2023-02-06T01:57:45.786Z,3.40
2023-02-06T02:00:13.212Z,3.90
2023-02-06T02:02:43.211Z,3.40
2023-02-06T02:05:10.729Z,3.40
2023-02-06T02:07:38.772Z,3.40
2023-02-06T02:10:06.305Z,3.40
2023-02-06T02:12:33.802Z,3.40
2023-02-06T02:15:02.765Z,3.40
2023-02-06T02:17:41.131Z,3.90
2023-02-06T02:20:27.738Z,3.40
2023-02-06T02:22:56.252Z,3.40
2023-02-06T02:25:42.103Z,3.60
2023-02-06T02:28:24.651Z,3.40
2023-02-06T02:30:58.755Z,3.20
2023-02-06T02:33:35.134Z,3.40
2023-02-06T02:36:21.136Z,3.40
2023-02-06T02:38:48.235Z,3.70
2023-02-06T02:41:24.353Z,3.40
2023-02-06T02:43:53.985Z,3.40
2023-02-06T02:46:25.000Z,3.40
2023-02-06T02:48:52.908Z,3.40
2023-02-06T02:51:20.082Z,3.40
2023-02-06T02:53:47.108Z,3.40
2023-02-06T02:56:21.548Z,3.40
2023-02-06T02:58:51.407Z,3.40
2023-02-06T03:01:26.907Z,3.40
2023-02-06T03:03:54.316Z,3.40
2023-02-06T03:06:50.430Z,3.30
2023-02-06T03:09:20.580Z,3.40
2023-02-06T03:11:54.090Z,3.40
2023-02-06T03:14:29.734Z,3.40
2023-02-06T03:17:04.380Z,3.30
2023-02-06T03:19:35.957Z,3.30
2023-02-06T03:22:08.717Z,3.30
2023-02-06T03:24:36.933Z,3.30
2023-02-06T03:27:04.482Z,3.40
2023-02-06T03:29:32.548Z,3.40
2023-02-06T03:32:04.412Z,3.90
2023-02-06T03:34:34.513Z,3.80
2023-02-06T03:37:01.613Z,3.30
2023-02-06T03:39:29.516Z,3.40
2023-02-06T03:41:56.824Z,3.90
2023-02-06T03:44:30.368Z,2.50
2023-02-06T03:47:00.024Z,3.00
2023-02-06T03:49:28.350Z,3.50
2023-02-06T03:52:16.960Z,3.30
2023-02-06T03:54:55.265Z,3.40
2023-02-06T03:57:22.579Z,3.40
2023-02-06T03:59:50.118Z,3.40
2023-02-06T04:02:17.134Z,3.40
2023-02-06T04:04:44.633Z,3.40
2023-02-06T04:07:25.968Z,3.40
2023-02-06T04:09:54.280Z,3.40
2023-02-06T04:12:23.100Z,3.40
2023-02-06T04:14:50.080Z,3.40
2023-02-06T04:17:28.193Z,3.40
2023-02-06T04:20:04.194Z,3.70
2023-02-06T04:22:31.340Z,3.40
2023-02-06T04:24:58.711Z,3.40
2023-02-06T04:27:28.599Z,3.40
2023-02-06T04:29:55.962Z,3.40
2023-02-06T04:32:23.030Z,3.80
2023-02-06T04:34:50.741Z,3.40
2023-02-06T04:37:18.103Z,3.60
2023-02-06T04:39:45.236Z,3.40
2023-02-06T04:42:12.220Z,3.40
2023-02-06T04:44:43.826Z,3.30
2023-02-06T04:47:10.833Z,3.40
2023-02-06T04:49:38.138Z,3.30
2023-02-06T04:52:06.626Z,3.30
2023-02-06T04:54:33.818Z,3.40
2023-02-06T04:57:00.768Z,3.80
2023-02-06T04:59:27.942Z,4.00
2023-02-06T05:01:57.744Z,3.30
2023-02-06T05:04:27.940Z,3.70
2023-02-06T05:06:57.870Z,3.40
2023-02-06T05:09:28.226Z,3.40
2023-02-06T05:11:55.841Z,3.70
2023-02-06T05:14:24.182Z,3.40
2023-02-06T05:16:51.970Z,3.70
2023-02-06T05:19:19.288Z,3.30
2023-02-06T05:21:46.277Z,3.50
2023-02-06T05:24:13.567Z,3.30
2023-02-06T05:26:41.623Z,3.40
2023-02-06T05:29:08.489Z,3.30
2023-02-06T05:31:35.962Z,3.30
2023-02-06T05:34:05.046Z,3.30
2023-02-06T05:36:32.206Z,3.30
2023-02-06T05:39:05.686Z,3.60
2023-02-06T05:41:32.546Z,3.30
2023-02-06T05:44:00.357Z,3.30
2023-02-06T05:46:27.788Z,3.30
2023-02-06T05:48:56.226Z,3.30
2023-02-06T05:51:26.120Z,3.30
2023-02-06T05:53:53.654Z,3.30
2023-02-06T05:56:20.782Z,3.20
2023-02-06T05:58:49.083Z,3.20
2023-02-06T06:01:16.627Z,3.20
2023-02-06T06:03:51.320Z,3.20
2023-02-06T06:06:18.446Z,3.10
2023-02-06T06:08:45.403Z,4.20
2023-02-06T06:11:12.289Z,3.00
2023-02-06T06:13:39.263Z,3.20
2023-02-06T06:16:06.331Z,3.20
2023-02-06T06:18:33.528Z,3.10
2023-02-06T06:21:01.088Z,3.10
2023-02-06T06:23:34.996Z,3.10
2023-02-06T06:28:45.172Z,3.10
2023-02-06T06:31:12.433Z,3.20
2023-02-06T06:33:42.573Z,3.10
2023-02-06T06:36:09.985Z,3.00
2023-02-06T06:38:36.961Z,3.00
2023-02-06T06:41:03.841Z,3.40
2023-02-06T06:43:32.356Z,3.00
2023-02-06T06:46:00.557Z,3.00
2023-02-06T06:48:27.773Z,3.60
2023-02-06T06:50:54.618Z,2.90
2023-02-06T06:53:21.421Z,2.80
2023-02-06T06:56:19.829Z,2.80
2023-02-06T06:58:46.614Z,2.70
2023-02-06T07:01:22.636Z,3.30
2023-02-06T07:04:39.712Z,2.70
2023-02-06T07:06:58.762Z,2.30
2023-02-06T07:09:25.648Z,2.60
2023-02-06T07:11:52.565Z,2.50
2023-02-06T07:20:40.643Z,2.10
2023-02-06T07:23:07.488Z,2.30
2023-02-06T07:25:34.643Z,2.80
2023-02-06T07:28:01.766Z,3.00
2023-02-06T07:30:28.758Z,2.20
2023-02-06T07:32:55.519Z,2.10
2023-02-06T07:35:22.310Z,2.10
2023-02-06T07:37:49.179Z,2.10
2023-02-06T07:40:16.094Z,2.30
2023-02-06T07:42:43.029Z,1.90
2023-02-06T07:45:09.940Z,1.90
2023-02-06T07:47:36.757Z,1.90
2023-02-06T07:50:04.392Z,1.80
2023-02-06T07:52:31.239Z,1.90
2023-02-06T07:54:58.056Z,1.80
2023-02-06T07:57:25.016Z,1.80
2023-02-06T07:59:51.980Z,1.80
2023-02-06T08:02:18.785Z,1.70
2023-02-06T08:04:45.584Z,1.70
2023-02-06T08:07:15.069Z,2.40
2023-02-06T08:09:42.316Z,1.70
2023-02-06T08:12:11.746Z,1.70
2023-02-06T08:14:38.682Z,1.70
2023-02-06T08:17:05.588Z,2.10
2023-02-06T08:19:32.560Z,1.70
2023-02-06T08:21:59.296Z,2.30
2023-02-06T08:24:26.326Z,1.70
2023-02-06T08:26:53.053Z,2.10
2023-02-06T08:29:20.026Z,1.70
2023-02-06T08:31:46.906Z,1.40
2023-02-06T08:34:15.030Z,2.10
2023-02-06T08:36:43.451Z,1.90
2023-02-06T08:39:18.329Z,2.00
2023-02-06T08:41:45.101Z,2.10
2023-02-06T08:44:14.566Z,2.10
2023-02-06T08:46:41.799Z,2.20
2023-02-06T08:49:11.380Z,2.20
2023-02-06T08:51:38.581Z,2.30
2023-02-06T08:54:06.358Z,2.40
2023-02-06T08:56:33.564Z,2.50
2023-02-06T08:59:00.510Z,2.50
2023-02-06T09:01:27.483Z,2.60
2023-02-06T09:03:57.931Z,3.00
2023-02-06T09:06:25.648Z,2.80
2023-02-06T09:08:52.851Z,2.80
2023-02-06T09:11:23.149Z,2.90
2023-02-06T09:13:50.212Z,3.00
2023-02-06T09:16:17.871Z,3.00
2023-02-06T09:18:44.787Z,3.10
2023-02-06T09:21:15.620Z,3.20
2023-02-06T09:23:43.941Z,3.20
2023-02-06T09:26:11.051Z,3.30
2023-02-06T09:28:37.895Z,3.30
2023-02-06T09:31:05.505Z,3.30
2023-02-06T09:33:32.379Z,3.40
2023-02-06T09:36:02.995Z,3.40
2023-02-06T09:38:29.740Z,3.50
2023-02-06T09:40:57.303Z,3.50
2023-02-06T09:43:24.218Z,3.60
2023-02-06T09:45:53.414Z,3.60
2023-02-06T09:51:29.337Z,3.80
2023-02-06T09:53:59.062Z,3.90
2023-02-06T09:56:31.615Z,3.40
2023-02-06T09:59:08.110Z,4.10
2023-02-06T10:01:41.110Z,4.20
2023-02-06T10:04:17.925Z,4.20
2023-02-06T10:06:57.507Z,4.30
2023-02-06T10:09:58.030Z,4.40
2023-02-06T10:18:27.978Z,4.70
2023-02-06T10:21:09.449Z,4.80
2023-02-06T10:23:39.239Z,4.80
2023-02-06T10:26:17.284Z,4.90
2023-02-06T10:28:48.405Z,5.00
2023-02-06T10:31:25.780Z,4.90
2023-02-06T10:33:58.888Z,5.10
2023-02-06T10:36:25.722Z,5.20
2023-02-06T10:39:12.140Z,5.20
2023-02-06T10:41:49.224Z,5.30
2023-02-06T10:44:16.050Z,5.40
2023-02-06T10:46:42.910Z,5.50
2023-02-06T10:49:09.897Z,5.50
2023-02-06T10:51:38.256Z,6.40
2023-02-06T10:54:06.844Z,5.80
2023-02-06T10:56:34.662Z,5.90
2023-02-06T10:59:03.458Z,6.00
2023-02-06T11:01:32.111Z,6.20
2023-02-06T11:04:00.793Z,6.20
2023-02-06T11:06:28.628Z,6.60
2023-02-06T11:08:55.436Z,6.50
2023-02-06T11:11:26.902Z,6.40
2023-02-06T11:13:55.611Z,6.60
2023-02-06T11:16:24.403Z,6.70
2023-02-06T11:18:51.375Z,6.80
2023-02-06T11:21:38.305Z,7.00
2023-02-06T11:24:09.377Z,7.50
2023-02-06T11:26:40.534Z,8.20
2023-02-06T11:29:27.289Z,9.00
2023-02-06T11:31:59.169Z,9.30
2023-02-06T11:34:29.142Z,9.80
2023-02-06T11:37:00.657Z,10.40
2023-02-06T11:39:37.654Z,10.30
2023-02-06T11:42:05.734Z,10.40
2023-02-06T11:44:37.485Z,10.40
2023-02-06T11:47:23.342Z,10.50
2023-02-06T11:49:50.416Z,10.20
2023-02-06T11:52:30.203Z,10.10
2023-02-06T11:55:01.823Z,10.00
2023-02-06T11:57:31.914Z,9.90
2023-02-06T11:59:59.997Z,9.80
2023-02-06T12:02:31.126Z,9.70
2023-02-06T12:05:11.253Z,9.70
2023-02-06T12:07:39.917Z,9.70
2023-02-06T12:10:16.588Z,10.70
2023-02-06T12:12:45.891Z,9.60
2023-02-06T12:15:39.882Z,9.70
2023-02-06T12:18:01.264Z,9.60
2023-02-06T12:20:29.002Z,9.70
2023-02-06T12:22:57.956Z,9.80
2023-02-06T12:25:24.732Z,9.80
2023-02-06T12:27:52.269Z,9.60
2023-02-06T12:30:39.650Z,9.20
2023-02-06T12:33:09.455Z,9.60
2023-02-06T12:35:40.035Z,9.50
2023-02-06T12:38:11.486Z,9.50
2023-02-06T12:40:47.477Z,9.90
2023-02-06T12:43:15.577Z,9.60
2023-02-06T12:45:45.710Z,9.60
2023-02-06T12:48:23.638Z,9.60
2023-02-06T12:50:53.635Z,9.70
2023-02-06T12:53:27.529Z,9.70
2023-02-06T12:56:00.615Z,9.70
2023-02-06T12:58:33.902Z,9.70
2023-02-06T13:01:29.265Z,9.80
2023-02-06T13:03:58.576Z,9.80
2023-02-06T13:06:25.957Z,9.90
2023-02-06T13:08:59.874Z,9.90
2023-02-06T13:11:29.155Z,9.90
2023-02-06T13:14:03.836Z,9.90
2023-02-06T13:16:37.155Z,9.90
2023-02-06T13:19:04.511Z,10.00
2023-02-06T13:21:32.489Z,9.90
2023-02-06T13:24:02.600Z,10.00
2023-02-06T13:26:48.991Z,9.90
2023-02-06T13:29:27.961Z,9.90
2023-02-06T13:32:22.809Z,9.90
2023-02-06T13:34:54.143Z,9.90
2023-02-06T13:37:34.505Z,10.30
2023-02-06T13:40:21.067Z,10.00
2023-02-06T13:43:08.835Z,10.00
2023-02-06T13:45:48.272Z,10.10
2023-02-06T13:48:30.500Z,10.10
2023-02-06T13:51:16.992Z,10.20
2023-02-06T13:53:43.835Z,10.10
2023-02-06T13:56:33.491Z,10.50
2023-02-06T13:59:06.155Z,10.20
2023-02-06T14:01:33.979Z,10.20
2023-02-06T14:04:02.212Z,10.10
2023-02-06T14:06:38.192Z,10.10
2023-02-06T14:09:05.199Z,10.10
2023-02-06T14:12:06.064Z,10.00
2023-02-06T14:14:44.917Z,10.00
2023-02-06T14:17:30.806Z,10.00
2023-02-06T14:20:16.703Z,10.00
2023-02-06T14:23:00.708Z,10.00
2023-02-06T14:25:52.743Z,10.00
2023-02-06T14:28:38.413Z,9.90
2023-02-06T14:31:05.232Z,9.90
2023-02-06T14:33:48.488Z,9.90
2023-02-06T14:36:44.718Z,9.90
2023-02-06T14:39:30.848Z,9.90
2023-02-06T14:41:58.488Z,9.90
2023-02-06T14:44:27.903Z,10.20
2023-02-06T14:46:55.563Z,9.90
2023-02-06T14:49:33.030Z,9.90
2023-02-06T14:51:59.889Z,9.90
2023-02-06T14:54:31.770Z,10.20
2023-02-06T14:56:59.494Z,9.90
2023-02-06T14:59:26.200Z,9.50
2023-02-06T15:01:53.515Z,10.00
2023-02-06T15:04:22.093Z,10.00
2023-02-06T15:06:51.879Z,10.00
2023-02-06T15:09:30.265Z,10.00
2023-02-06T15:11:57.859Z,10.10
2023-02-06T15:14:25.948Z,10.10
2023-02-06T15:16:52.742Z,10.20
2023-02-06T15:19:23.701Z,10.30
2023-02-06T15:21:50.498Z,10.30
2023-02-06T15:24:20.255Z,10.40
2023-02-06T15:26:59.287Z,10.70
2023-02-06T15:29:27.004Z,10.70
2023-02-06T15:31:55.354Z,11.00
2023-02-06T15:34:23.011Z,11.30
2023-02-06T15:36:50.161Z,11.60
2023-02-06T15:39:17.413Z,11.90
2023-02-06T15:41:50.418Z,12.10
2023-02-06T15:44:23.468Z,12.30
2023-02-06T15:46:50.550Z,12.40
2023-02-06T15:49:17.709Z,12.50
2023-02-06T15:51:52.056Z,12.60
2023-02-06T15:54:20.081Z,12.70
2023-02-06T15:56:51.227Z,12.80
2023-02-06T15:59:20.940Z,12.80
2023-02-06T16:01:47.781Z,12.90
2023-02-06T16:04:24.051Z,12.80
2023-02-06T16:07:07.550Z,12.80
2023-02-06T16:09:53.024Z,12.90
2023-02-06T16:12:21.521Z,12.80
2023-02-06T16:14:52.674Z,12.90
2023-02-06T16:17:19.392Z,12.80
2023-02-06T16:20:02.376Z,13.10
2023-02-06T16:22:30.194Z,12.70
2023-02-06T16:25:15.583Z,12.60
2023-02-06T16:27:43.448Z,12.50
2023-02-06T16:30:28.654Z,12.20
2023-02-06T16:32:56.019Z,12.00
2023-02-06T16:35:23.353Z,11.80
2023-02-06T16:37:51.293Z,11.50
2023-02-06T16:40:18.177Z,11.30
2023-02-06T16:42:47.660Z,11.10
2023-02-06T16:45:25.049Z,10.80
2023-02-06T16:47:52.165Z,10.60
2023-02-06T16:50:19.334Z,10.40
2023-02-06T16:52:47.559Z,10.20
2023-02-06T16:55:17.677Z,10.00
2023-02-06T16:57:45.691Z,9.80
2023-02-06T17:00:24.623Z,9.60
2023-02-06T17:02:55.757Z,9.40
2023-02-06T17:05:31.426Z,9.30
2023-02-06T17:08:05.424Z,9.10
2023-02-06T17:10:47.424Z,9.00
2023-02-06T17:13:17.576Z,8.80
2023-02-06T17:18:33.368Z,8.40
2023-02-06T17:21:05.962Z,8.30
2023-02-06T17:26:13.225Z,8.10
2023-02-06T17:28:48.697Z,7.90
2023-02-06T17:36:47.179Z,7.50
2023-02-06T18:01:22.476Z,6.60
2023-02-06T18:23:01.340Z,5.90
2023-02-06T18:25:30.306Z,5.80
2023-02-06T18:30:42.883Z,5.60
2023-02-06T18:44:26.762Z,5.10
2023-02-06T18:46:56.480Z,5.30
2023-02-06T18:49:23.604Z,5.30
2023-02-06T18:51:50.342Z,5.30
2023-02-06T18:54:19.488Z,6.50
2023-02-06T18:56:52.816Z,5.10
2023-02-06T18:59:21.652Z,5.20
2023-02-06T19:01:50.253Z,5.10
2023-02-06T19:04:18.226Z,5.20
2023-02-06T19:06:46.123Z,5.10
2023-02-06T19:09:15.188Z,5.00
2023-02-06T19:11:43.587Z,5.00
2023-02-06T19:14:15.432Z,4.90
2023-02-06T19:16:48.201Z,5.00
2023-02-06T19:21:59.944Z,4.80
2023-02-06T19:24:32.795Z,4.80
2023-02-06T19:26:59.748Z,4.80
2023-02-06T19:29:35.593Z,4.70
2023-02-06T19:34:51.092Z,4.60
2023-02-06T19:37:18.718Z,4.60
2023-02-06T19:48:39.314Z,4.30
2023-02-06T19:51:07.803Z,4.20
2023-02-06T19:53:34.955Z,4.10
2023-02-06T19:56:12.975Z,4.10
2023-02-06T19:58:40.496Z,4.10
2023-02-06T20:03:48.091Z,4.30
2023-02-06T20:06:16.012Z,3.90
2023-02-06T20:08:43.764Z,3.80
2023-02-06T20:11:12.136Z,4.30
2023-02-06T20:13:39.113Z,3.70
2023-02-06T20:16:07.311Z,3.70
2023-02-06T20:18:34.615Z,3.70
2023-02-06T20:21:01.892Z,3.70
2023-02-06T20:23:29.026Z,3.70
2023-02-06T20:25:55.956Z,3.60
2023-02-06T20:28:23.263Z,3.50
2023-02-06T20:30:52.290Z,3.90
2023-02-06T20:33:19.557Z,4.10
2023-02-06T20:35:46.403Z,2.30
2023-02-06T20:38:13.292Z,2.70
2023-02-06T20:40:44.018Z,2.80
2023-02-06T20:43:10.978Z,3.10
2023-02-06T20:45:38.060Z,3.10
2023-02-06T20:48:05.511Z,3.00
2023-02-06T20:50:34.324Z,3.00
2023-02-06T20:53:01.370Z,3.00
2023-02-06T20:55:28.738Z,2.80
2023-02-06T20:57:55.572Z,2.90
2023-02-06T21:00:22.316Z,2.90
2023-02-06T21:02:51.049Z,2.80
2023-02-06T21:05:19.687Z,3.20
2023-02-06T21:07:46.408Z,2.80
2023-02-06T21:10:13.254Z,2.70
2023-02-06T21:12:40.139Z,2.70
2023-02-06T21:15:09.702Z,2.70
2023-02-06T21:17:36.574Z,2.70
2023-02-06T21:20:04.300Z,2.70
2023-02-06T21:22:31.319Z,2.90
2023-02-06T21:24:58.368Z,2.70
2023-02-06T21:27:25.477Z,2.70
2023-02-06T21:29:52.404Z,2.70
2023-02-06T21:32:19.382Z,2.70
2023-02-06T21:34:46.318Z,2.70
2023-02-06T21:37:13.449Z,3.80
2023-02-06T21:39:41.242Z,2.60
2023-02-06T21:42:09.248Z,2.50
2023-02-06T21:44:37.732Z,2.60
2023-02-06T21:47:16.254Z,3.20
2023-02-06T21:49:52.225Z,2.50
2023-02-06T21:52:23.421Z,2.50
2023-02-06T21:54:55.993Z,2.40
2023-02-06T21:57:23.032Z,2.40
2023-02-06T21:59:51.345Z,2.30
2023-02-06T22:02:19.016Z,2.10
2023-02-06T22:04:46.892Z,2.70
2023-02-06T22:07:16.747Z,2.00
2023-02-06T22:09:44.179Z,2.20
2023-02-06T22:12:11.885Z,2.20
2023-02-06T22:14:42.785Z,2.20
2023-02-06T22:17:09.971Z,2.20
2023-02-06T22:19:39.622Z,3.20
2023-02-06T22:22:06.984Z,2.20
2023-02-06T22:24:39.132Z,2.50
2023-02-06T22:27:05.944Z,2.20
2023-02-06T22:29:33.094Z,2.20
2023-02-06T22:32:05.480Z,2.40
2023-02-06T22:34:34.444Z,1.80
2023-02-06T22:37:02.442Z,2.10
2023-02-06T22:39:29.276Z,2.10
2023-02-06T22:41:58.690Z,2.10
2023-02-06T22:44:26.625Z,2.10
2023-02-06T22:46:54.099Z,1.90
2023-02-06T22:49:21.851Z,2.00
2023-02-06T22:51:49.606Z,2.00
2023-02-06T22:54:16.559Z,2.30
2023-02-06T22:56:43.635Z,1.90
2023-02-06T22:59:11.809Z,1.90
2023-02-06T23:01:48.475Z,1.90
2023-02-06T23:04:25.844Z,2.30
2023-02-06T23:06:53.482Z,1.90
2023-02-06T23:09:27.010Z,1.90
2023-02-06T23:11:54.142Z,2.40
2023-02-06T23:14:21.247Z,2.20
2023-02-06T23:16:48.280Z,1.80
2023-02-06T23:19:15.402Z,1.80
2023-02-06T23:21:42.364Z,2.00
2023-02-06T23:24:11.832Z,1.80
2023-02-06T23:26:39.521Z,1.80
2023-02-06T23:29:09.960Z,2.20
2023-02-06T23:31:37.299Z,1.70
2023-02-06T23:34:04.457Z,1.70
2023-02-06T23:36:31.392Z,1.70
2023-02-06T23:39:00.570Z,1.60
2023-02-06T23:41:27.614Z,1.60
2023-02-06T23:43:58.680Z,1.60
2023-02-06T23:46:25.802Z,1.60
2023-02-06T23:48:52.593Z,1.80
2023-02-06T23:51:19.660Z,1.50
2023-02-06T23:53:46.748Z,1.90
2023-02-06T23:56:14.980Z,1.30
2023-02-06T23:58:42.035Z,1.40
